This is the latest recevied weather packets stored in our database for station/object OK1VCF-8. If no packets are shown the sender has not sent any weather packets the latest 1 day(s).
| Time | Temp. | Humidity | Pressure | Rain* | Wind** | Luminosity | Snow |
|---|---|---|---|---|---|---|---|
| 1836274575 | 11.67° C | 94% | 1023.3 hPa | - | 0 m/s | - | - |
| 1836274450 | 12.22° C | 94% | 1023.6 hPa | - | 0 m/s | - | - |
| 1836274137 | 12.22° C | 94% | 1023.4 hPa | - | 0 m/s | - | - |
| 1836274011 | 12.22° C | 94% | 1023.8 hPa | - | 0 m/s | - | - |
| 1778013666 | 14.44° C | 86% | 1006.4 hPa | - | 0 m/s | - | - |
| 1778013228 | 15° C | 78% | 1006.3 hPa | - | 0 m/s | - | - |
| 1778012790 | 15° C | 77% | 1005.8 hPa | - | 0 m/s | - | - |
| 1778011487 | 17.22° C | 66% | 1005.6 hPa | - | 0 m/s | - | - |
| 1778011047 | 17.22° C | 67% | 1005.4 hPa | - | 0 m/s | - | - |
| 1778010609 | 17.78° C | 66% | 1005 hPa | - | 0 m/s | - | - |
| 1778010171 | 17.78° C | 66% | 1004.8 hPa | - | 0 m/s | - | - |
| 1778009734 | 17.78° C | 66% | 1004.7 hPa | - | 0 m/s | - | - |
| 1778009295 | 17.78° C | 66% | 1004.6 hPa | - | 0 m/s | - | - |
| 1778008857 | 17.78° C | 65% | 1004.6 hPa | - | 0 m/s | - | - |
| 1778008255 | 17.78° C | 64% | 1004.6 hPa | - | 0 m/s | - | - |
| 1778007813 | 17.78° C | 64% | 1004.8 hPa | - | 0 m/s | - | - |
| 1778006509 | 17.78° C | 62% | 1004.8 hPa | - | 0 m/s | - | - |
| 1778006070 | 17.78° C | 62% | 1004.8 hPa | - | 0 m/s | - | - |
| 1778005632 | 17.78° C | 62% | 1004.7 hPa | - | 0 m/s | - | - |
| 1778005193 | 18.33° C | 62% | 1004.8 hPa | - | 0 m/s | - | - |
| 1778004754 | 18.89° C | 60% | 1004.6 hPa | - | 0 m/s | - | - |
| 1778004316 | 18.89° C | 57% | 1004.7 hPa | - | 0 m/s | - | - |
| 1778003873 | 18.89° C | 56% | 1004.8 hPa | - | 0 m/s | - | - |
| 1778002573 | 20° C | 54% | 1005 hPa | - | 0 m/s | - | - |
| 1778002134 | 20° C | 55% | 1005.2 hPa | - | 0 m/s | - | - |
* Rain since midnight (hover to see other rain measurements)
** Current wind speed in m/s (hover to see current wind gust speed)